Time;durP1;ratioP1;P1;durP2;ratioP2;P2;SDS_P1;SDS_P2;PMS_P1;PMS_P2;Temp;Humidity;BMP_temperature;BMP_pressure;BME280_temperature;BME280_humidity;BME280_pressure;Samples;Min_cycle;Max_cycle;Signal;HPM_P1;HPM_P2
2022/08/02 00:01:41;;;;;;;1.43;1.43;;;;;;;24.37;49.69;99124.69;5071951;28;20202;-69
2022/08/02 00:04:08;;;;;;;5.30;1.80;;;;;;;24.26;49.65;99122.41;5072092;28;20260;-68
2022/08/02 00:06:35;;;;;;;1.83;1.73;;;;;;;24.19;50.03;99133.66;5071827;28;20199;-69
2022/08/02 00:09:04;;;;;;;1.20;1.20;;;;;;;24.20;49.95;99135.25;5071834;28;20733;-68
2022/08/02 00:11:31;;;;;;;1.63;1.63;;;;;;;24.12;50.15;99132.38;5071707;28;20191;-69
2022/08/02 00:13:57;;;;;;;1.77;1.60;;;;;;;24.06;50.29;99139.78;5072142;28;20253;-68
2022/08/02 00:16:24;;;;;;;4.43;2.00;;;;;;;23.97;50.55;99136.09;5072544;28;20190;-68
2022/08/02 00:18:51;;;;;;;2.20;2.10;;;;;;;23.96;50.46;99134.50;5071845;28;20198;-68
2022/08/02 00:21:18;;;;;;;2.83;2.00;;;;;;;23.94;50.65;99138.59;5071912;28;20239;-68
2022/08/02 00:23:44;;;;;;;2.80;1.77;;;;;;;24.00;50.41;99135.53;5071542;28;20197;-69
2022/08/02 00:26:13;;;;;;;1.63;1.53;;;;;;;24.07;50.43;99144.13;5071824;28;20240;-68
2022/08/02 00:28:39;;;;;;;1.57;1.57;;;;;;;23.97;50.82;99130.66;5071485;28;20288;-68
2022/08/02 00:31:06;;;;;;;1.90;1.80;;;;;;;23.74;51.49;99136.91;5071653;28;20265;-69
2022/08/02 00:33:33;;;;;;;3.33;1.80;;;;;;;23.71;51.75;99136.69;5072902;28;20247;-69
2022/08/02 00:35:59;;;;;;;1.87;1.73;;;;;;;23.74;51.71;99131.50;5075458;28;20251;-69
2022/08/02 00:38:26;;;;;;;1.90;1.80;;;;;;;23.52;52.40;99139.34;5075594;28;20251;-69
2022/08/02 00:40:53;;;;;;;3.60;2.00;;;;;;;23.61;52.22;99134.09;5075470;28;20193;-69
2022/08/02 00:43:21;;;;;;;2.07;1.97;;;;;;;23.74;52.07;99130.69;5075314;28;20198;-69
2022/08/02 00:45:48;;;;;;;1.93;1.83;;;;;;;23.78;51.83;99126.28;5075628;28;20190;-69
2022/08/02 00:48:14;;;;;;;1.67;1.67;;;;;;;23.91;51.52;99131.84;5075416;28;20297;-69
2022/08/02 00:50:41;;;;;;;1.70;1.60;;;;;;;23.84;51.19;99131.34;5075415;28;20192;-69
2022/08/02 00:53:09;;;;;;;1.90;1.80;;;;;;;23.91;50.91;99115.56;5075216;28;20199;-69
2022/08/02 00:55:36;;;;;;;1.80;1.70;;;;;;;24.17;51.29;99124.97;5075045;28;20198;-69
2022/08/02 00:58:03;;;;;;;2.20;2.10;;;;;;;24.32;49.77;99132.91;5074769;28;20238;-69
2022/08/02 01:00:31;;;;;;;1.97;1.87;;;;;;;24.38;50.58;99131.72;5075179;28;20344;-69
2022/08/02 01:02:58;;;;;;;1.47;1.40;;;;;;;24.45;49.41;99128.63;5075284;28;20196;-69
2022/08/02 01:05:24;;;;;;;1.77;1.77;;;;;;;24.51;50.19;99127.47;5075227;28;20195;-69
2022/08/02 01:07:51;;;;;;;2.37;1.80;;;;;;;24.34;50.03;99125.25;5075185;28;20706;-69
2022/08/02 01:10:18;;;;;;;2.20;1.67;;;;;;;24.43;49.02;99123.50;5075717;28;20264;-69
2022/08/02 01:12:46;;;;;;;2.00;1.90;;;;;;;24.70;50.14;99129.06;5074882;28;20244;-69
2022/08/02 01:15:14;;;;;;;3.13;1.80;;;;;;;24.89;48.08;99127.13;5074577;28;20623;-69
2022/08/02 01:17:49;;;;;;;3.10;1.63;;;;;;;24.96;47.94;99124.81;5074890;28;20203;-69
2022/08/02 01:20:38;;;;;;;1.83;1.73;;;;;;;24.99;48.23;99117.97;5075243;28;20260;-69
2022/08/02 01:23:29;;;;;;;2.80;1.40;;;;;;;25.25;46.75;99113.72;5075180;28;20183;-68
2022/08/02 01:26:18;;;;;;;2.00;1.70;;;;;;;25.22;46.21;99118.94;5074955;28;20187;-68
2022/08/02 01:28:51;;;;;;;2.10;1.90;;;;;;;25.39;47.62;99119.22;5075720;28;20208;-69
2022/08/02 01:31:26;;;;;;;2.00;1.60;;;;;;;25.52;46.91;99112.97;5074895;28;20731;-69
2022/08/02 01:33:59;;;;;;;1.87;1.77;;;;;;;25.67;46.58;99109.91;5074716;28;20187;-68
2022/08/02 01:36:30;;;;;;;1.87;1.77;;;;;;;25.89;46.29;99113.53;5074777;28;20652;-68
2022/08/02 01:38:58;;;;;;;2.03;1.93;;;;;;;25.98;45.68;99119.09;5075067;28;20184;-69
2022/08/02 01:41:28;;;;;;;2.30;2.10;;;;;;;26.07;44.70;99120.00;5075168;28;20192;-68
2022/08/02 01:43:59;;;;;;;3.87;2.43;;;;;;;26.15;43.89;99122.81;5074555;28;20188;-68
2022/08/02 01:46:27;;;;;;;2.20;2.10;;;;;;;26.11;44.89;99127.25;5074470;28;20188;-68
2022/08/02 01:48:57;;;;;;;2.00;1.90;;;;;;;26.21;44.76;99115.34;5074065;28;20269;-69
2022/08/02 01:54:11;;;;;;;4.27;2.10;;;;;;;26.45;43.86;99104.97;5073922;28;20192;-69
2022/08/02 01:56:39;;;;;;;2.10;2.00;;;;;;;26.55;43.41;99115.63;5074771;28;20235;-68
2022/08/02 01:59:10;;;;;;;2.03;1.93;;;;;;;26.49;43.51;99105.94;5074761;28;20228;-68
2022/08/02 02:01:38;;;;;;;4.00;1.73;;;;;;;26.40;42.74;99119.50;5074368;28;20611;-68
2022/08/02 02:04:07;;;;;;;1.87;1.77;;;;;;;26.39;42.61;99106.19;5074209;28;20188;-67
2022/08/02 02:06:35;;;;;;;2.00;1.80;;;;;;;26.03;44.25;99105.38;5074151;28;20192;-67
2022/08/02 02:09:02;;;;;;;1.93;1.83;;;;;;;25.88;43.32;99094.81;5073605;28;20281;-67
2022/08/02 02:11:29;;;;;;;1.70;1.63;;;;;;;25.64;43.74;99099.66;5074433;28;20200;-67
2022/08/02 02:13:58;;;;;;;2.20;2.00;;;;;;;25.31;44.82;99101.66;5074060;28;20200;-67
2022/08/02 02:16:28;;;;;;;1.50;1.47;;;;;;;25.26;44.79;99098.19;5073960;28;20199;-67
2022/08/02 02:18:55;;;;;;;4.03;1.80;;;;;;;25.00;46.82;99089.72;5073700;28;20202;-67
2022/08/02 02:21:22;;;;;;;1.63;1.63;;;;;;;24.98;45.29;99094.63;5073495;28;20257;-68
2022/08/02 02:23:48;;;;;;;1.53;1.53;;;;;;;25.21;45.07;99101.00;5073649;28;20242;-68
2022/08/02 02:26:17;;;;;;;1.63;1.63;;;;;;;25.48;45.69;99107.31;5073642;28;20195;-67
2022/08/02 02:28:47;;;;;;;3.33;1.70;;;;;;;25.46;44.72;99108.72;5072975;28;20314;-68
2022/08/02 02:31:17;;;;;;;1.70;1.60;;;;;;;25.37;44.53;99107.81;5073658;28;20221;-68
2022/08/02 02:33:50;;;;;;;1.73;1.63;;;;;;;25.29;45.92;99103.06;5074070;28;20216;-68
2022/08/02 02:36:18;;;;;;;1.97;1.87;;;;;;;25.36;45.09;99101.59;5073198;28;20180;-68
2022/08/02 02:38:46;;;;;;;1.70;1.70;;;;;;;25.63;45.08;99104.28;5073644;28;20269;-68
2022/08/02 02:41:13;;;;;;;2.13;1.70;;;;;;;25.66;44.59;99111.03;5073390;28;20188;-68
2022/08/02 02:43:42;;;;;;;1.73;1.60;;;;;;;25.79;44.62;99097.44;5073349;28;20259;-68
2022/08/02 02:46:10;;;;;;;1.37;1.37;;;;;;;25.71;45.03;99100.03;5072982;28;20191;-68
2022/08/02 02:48:37;;;;;;;1.63;1.63;;;;;;;25.47;44.43;99102.19;5073042;28;20216;-68
2022/08/02 02:51:08;;;;;;;2.00;1.80;;;;;;;25.17;44.82;99100.00;5073086;28;20664;-68
2022/08/02 02:53:36;;;;;;;1.80;1.73;;;;;;;24.85;45.76;99098.94;5072422;28;20245;-68
2022/08/02 02:56:04;;;;;;;2.90;1.70;;;;;;;24.45;46.95;99105.00;5072605;28;20199;-68
2022/08/02 02:58:31;;;;;;;2.73;2.27;;;;;;;24.23;47.46;99098.56;5072976;28;20292;-68
2022/08/02 03:03:44;;;;;;;3.00;2.50;;;;;;;23.98;48.81;99102.44;5073268;28;20206;-68
2022/08/02 03:06:12;;;;;;;4.60;2.37;;;;;;;23.82;49.42;99108.34;5072753;28;20258;-69
2022/08/02 03:08:39;;;;;;;2.57;2.17;;;;;;;23.82;51.12;99095.59;5072775;28;20230;-68
2022/08/02 03:11:08;;;;;;;2.20;2.10;;;;;;;24.20;49.86;99108.09;5072525;28;20202;-69
2022/08/02 03:13:35;;;;;;;4.57;2.60;;;;;;;24.33;48.76;99101.94;5072431;28;20677;-68
2022/08/02 03:16:03;;;;;;;4.33;2.60;;;;;;;24.28;48.56;99103.91;5072303;28;20253;-69
2022/08/02 03:18:30;;;;;;;2.83;2.50;;;;;;;24.55;48.77;99115.69;5072840;28;20202;-68
2022/08/02 03:21:00;;;;;;;4.20;2.50;;;;;;;24.67;47.73;99116.06;5072739;28;20198;-68
2022/08/02 03:23:28;;;;;;;5.43;2.47;;;;;;;24.28;48.81;99109.34;5072354;28;20252;-68
2022/08/02 03:25:55;;;;;;;3.10;2.80;;;;;;;24.41;49.65;99114.84;5072656;28;20191;-68
2022/08/02 03:28:22;;;;;;;2.80;2.50;;;;;;;24.64;49.30;99113.16;5072840;28;20234;-68
2022/08/02 03:30:49;;;;;;;2.60;2.30;;;;;;;24.47;48.51;99110.16;5072307;28;20195;-68
2022/08/02 03:33:16;;;;;;;4.87;2.80;;;;;;;24.09;49.71;99109.34;5071644;28;20244;-68
2022/08/02 03:35:45;;;;;;;6.03;2.60;;;;;;;23.47;52.01;99109.56;5072003;28;20193;-69
2022/08/02 03:38:13;;;;;;;2.43;2.23;;;;;;;23.24;52.73;99107.66;5072391;28;20202;-69
2022/08/02 03:40:42;;;;;;;5.07;2.30;;;;;;;23.20;53.10;99114.72;5072595;28;20288;-68
2022/08/02 03:43:10;;;;;;;3.93;2.50;;;;;;;23.57;53.44;99123.00;5072399;28;20286;-67
2022/08/02 03:45:39;;;;;;;3.97;2.37;;;;;;;23.78;52.23;99127.09;5072302;28;20195;-68
2022/08/02 03:48:07;;;;;;;2.53;2.23;;;;;;;24.02;50.90;99127.88;5071820;28;20200;-68
2022/08/02 03:50:34;;;;;;;2.20;2.10;;;;;;;24.02;50.69;99127.88;5072155;28;20252;-68
2022/08/02 03:53:02;;;;;;;3.57;2.60;;;;;;;24.13;50.31;99134.00;5071772;28;20558;-68
2022/08/02 03:55:29;;;;;;;3.27;2.50;;;;;;;24.39;50.74;99138.75;5071867;28;20677;-68
2022/08/02 03:57:57;;;;;;;4.30;2.43;;;;;;;24.55;49.30;99145.56;5072200;28;20279;-69
2022/08/02 04:00:24;;;;;;;5.47;2.17;;;;;;;24.54;48.97;99143.97;5072408;28;20352;-69
2022/08/02 04:02:51;;;;;;;2.80;2.37;;;;;;;24.62;49.02;99137.09;5071913;28;20194;-69
2022/08/02 04:05:19;;;;;;;3.57;2.10;;;;;;;24.65;49.92;99137.31;5072101;28;20199;-69
2022/08/02 04:07:47;;;;;;;7.93;2.27;;;;;;;25.30;46.26;99140.03;5070893;28;20602;-68
2022/08/02 04:10:13;;;;;;;2.17;2.07;;;;;;;25.97;44.39;99142.00;5071413;28;20728;-69
2022/08/02 04:12:40;;;;;;;7.53;2.50;;;;;;;26.67;42.50;99140.44;5071895;28;20199;-68
2022/08/02 04:15:12;;;;;;;2.20;2.10;;;;;;;26.97;41.50;99145.13;5071723;28;20257;-69
2022/08/02 04:17:43;;;;;;;2.90;2.17;;;;;;;27.82;39.34;99145.59;5071521;28;20180;-68
2022/08/02 04:20:14;;;;;;;6.03;2.20;;;;;;;28.63;38.01;99150.25;5071645;28;20188;-68
2022/08/02 04:22:47;;;;;;;2.03;1.90;;;;;;;29.06;37.30;99151.03;5071849;28;20250;-69
2022/08/02 04:25:16;;;;;;;3.23;2.03;;;;;;;29.51;36.41;99148.66;5071542;28;20184;-68
2022/08/02 04:27:44;;;;;;;1.93;1.83;;;;;;;29.63;35.90;99157.81;5071504;28;20706;-68
2022/08/02 04:30:16;;;;;;;2.83;1.93;;;;;;;29.92;35.36;99159.78;5071634;28;20223;-68
2022/08/02 04:32:44;;;;;;;1.90;1.80;;;;;;;29.87;35.79;99163.50;5071420;28;20184;-68
2022/08/02 04:35:11;;;;;;;2.07;1.97;;;;;;;30.62;33.95;99168.03;5071639;28;20195;-69
2022/08/02 04:37:38;;;;;;;2.83;2.23;;;;;;;30.93;33.73;99180.22;5071238;28;20725;-68
2022/08/02 04:40:09;;;;;;;2.47;2.13;;;;;;;31.65;32.61;99163.94;5071354;28;20203;-68
2022/08/02 04:42:36;;;;;;;2.57;2.37;;;;;;;32.17;32.13;99175.91;5071138;28;20215;-68
2022/08/02 04:45:04;;;;;;;3.37;1.93;;;;;;;32.82;30.69;99175.56;5071285;28;20710;-68
2022/08/02 04:47:33;;;;;;;9.90;2.60;;;;;;;33.26;29.62;99174.47;5071097;28;20192;-68
2022/08/02 04:49:59;;;;;;;2.70;2.00;;;;;;;33.47;29.48;99167.94;5071233;28;20602;-67
2022/08/02 04:52:26;;;;;;;8.67;1.80;;;;;;;34.04;28.26;99168.22;5071421;28;20572;-67
2022/08/02 04:54:53;;;;;;;3.83;2.23;;;;;;;34.61;27.75;99184.91;5071462;28;20201;-66
2022/08/02 05:00:06;;;;;;;2.25;2.00;;;;;;;35.62;26.35;99189.75;5070636;28;20251;-66
2022/08/02 05:02:34;;;;;;;3.17;1.98;;;;;;;35.51;26.11;99196.25;5071058;28;20196;-67
2022/08/02 05:05:01;;;;;;;6.13;2.15;;;;;;;35.43;25.92;99191.78;5070048;28;20253;-67
2022/08/02 05:07:28;;;;;;;1.85;1.60;;;;;;;35.99;25.78;99190.00;5070142;28;20725;-68
2022/08/02 05:09:55;;;;;;;6.00;1.73;;;;;;;35.90;25.78;99186.69;5070674;28;20216;-68
2022/08/02 05:12:23;;;;;;;3.45;1.55;;;;;;;35.79;25.80;99192.06;5069915;28;20184;-68
2022/08/02 05:14:49;;;;;;;5.07;2.15;;;;;;;36.23;25.71;99201.50;5070335;28;20207;-66
2022/08/02 05:17:16;;;;;;;2.15;1.63;;;;;;;36.53;25.35;99198.75;5070169;28;20583;-67
2022/08/02 05:19:44;;;;;;;1.98;1.85;;;;;;;36.55;24.76;99199.19;5071432;28;20261;-67
2022/08/02 05:22:11;;;;;;;21.40;2.92;;;;;;;37.18;23.48;99194.50;5073751;28;20213;-67
2022/08/02 05:24:38;;;;;;;2.33;1.45;;;;;;;37.30;23.90;99199.00;5074352;28;20192;-67
2022/08/02 05:27:05;;;;;;;7.28;1.92;;;;;;;37.58;23.57;99194.53;5074474;28;20196;-67
2022/08/02 05:29:31;;;;;;;10.48;1.73;;;;;;;37.54;23.50;99199.22;5074006;28;20211;-66
2022/08/02 05:31:58;;;;;;;4.28;1.85;;;;;;;37.86;22.04;99200.34;5069952;28;20868;-66
2022/08/02 05:34:25;;;;;;;3.20;2.35;;;;;;;37.73;22.87;99204.59;5073438;28;20188;-67
2022/08/02 05:36:53;;;;;;;5.13;1.90;;;;;;;37.98;22.02;99202.84;5074039;28;20562;-67
2022/08/02 05:39:19;;;;;;;2.15;1.70;;;;;;;38.04;23.14;99189.44;5074217;28;20200;-68
2022/08/02 05:41:46;;;;;;;5.20;1.85;;;;;;;38.05;21.94;99202.91;5073995;28;20241;-69
2022/08/02 05:44:13;;;;;;;2.30;1.52;;;;;;;37.28;22.58;99198.56;5073951;28;20195;-69
2022/08/02 05:46:40;;;;;;;8.23;1.88;;;;;;;37.31;22.71;99198.59;5074175;28;20196;-66
2022/08/02 05:49:06;;;;;;;2.53;1.50;;;;;;;36.98;22.73;99198.56;5073555;28;20219;-67
2022/08/02 05:51:39;;;;;;;4.78;1.73;;;;;;;37.10;22.94;99196.38;5073600;28;20218;-68
2022/08/02 05:54:18;;;;;;;4.70;1.60;;;;;;;36.67;23.13;99210.03;5073797;28;20184;-68
2022/08/02 05:56:50;;;;;;;3.33;1.70;;;;;;;36.47;23.20;99205.78;5073780;28;20184;-68
2022/08/02 05:59:26;;;;;;;2.38;1.50;;;;;;;35.22;24.58;99202.38;5073443;28;20289;-68
2022/08/02 06:02:02;;;;;;;2.65;1.70;;;;;;;36.10;23.34;99210.34;5073757;28;20564;-68
2022/08/02 06:04:36;;;;;;;4.18;1.60;;;;;;;35.60;23.48;99210.66;5073908;28;20253;-68
2022/08/02 06:07:05;;;;;;;1.52;1.42;;;;;;;35.71;24.13;99206.09;5073359;28;20183;-69
2022/08/02 06:09:34;;;;;;;2.40;1.38;;;;;;;35.96;22.71;99207.31;5065020;28;20273;-69
2022/08/02 06:12:03;;;;;;;6.15;2.00;;;;;;;35.80;23.71;99214.97;5053230;28;20189;-69
2022/08/02 06:14:32;;;;;;;2.20;1.63;;;;;;;35.28;24.48;99214.78;5064193;28;20195;-69
2022/08/02 06:17:03;;;;;;;3.90;1.60;;;;;;;34.85;24.60;99217.78;5063243;28;20192;-69
2022/08/02 06:19:31;;;;;;;2.83;2.10;;;;;;;34.45;25.45;99211.78;5053884;28;20255;-70
2022/08/02 06:22:13;;;;;;;3.42;2.00;;;;;;;34.89;24.70;99221.44;5053152;28;20258;-70
2022/08/02 06:24:43;;;;;;;17.85;2.42;;;;;;;34.27;25.71;99218.78;5052020;28;20197;-70
2022/08/02 06:27:10;;;;;;;3.53;1.60;;;;;;;34.09;25.63;99218.38;5064728;28;20279;-70
2022/08/02 06:29:38;;;;;;;3.50;1.90;;;;;;;34.44;25.86;99213.72;5073175;28;20583;-66
2022/08/02 06:32:07;;;;;;;2.75;1.67;;;;;;;34.36;25.80;99223.00;5072455;28;20257;-68
2022/08/02 06:34:37;;;;;;;4.00;1.70;;;;;;;34.51;25.99;99224.94;5071952;28;20196;-65
2022/08/02 06:37:11;;;;;;;1.98;1.80;;;;;;;34.81;25.33;99227.97;5071674;28;20198;-66
2022/08/02 06:39:46;;;;;;;4.82;2.20;;;;;;;34.96;25.10;99227.91;5071694;28;20183;-65
2022/08/02 06:42:17;;;;;;;5.25;1.83;;;;;;;34.66;25.30;99226.81;5071644;28;20186;-66
2022/08/02 06:44:44;;;;;;;10.57;2.30;;;;;;;34.53;25.73;99221.81;5069957;28;20253;-64
2022/08/02 06:47:10;;;;;;;5.35;1.83;;;;;;;34.95;25.08;99223.53;5073599;28;20652;-65
2022/08/02 06:49:37;;;;;;;3.35;1.63;;;;;;;34.65;25.37;99229.94;5073468;28;20219;-68
2022/08/02 06:52:05;;;;;;;4.05;1.75;;;;;;;34.69;25.28;99225.31;5073284;28;20196;-64
2022/08/02 06:54:33;;;;;;;3.10;1.73;;;;;;;34.63;25.55;99216.53;5072675;28;20265;-65
2022/08/02 06:57:01;;;;;;;3.13;1.88;;;;;;;34.57;25.52;99222.69;5073380;28;20200;-65
2022/08/02 06:59:27;;;;;;;2.35;1.60;;;;;;;34.42;25.35;99216.03;5073162;28;20204;-65
2022/08/02 07:01:55;;;;;;;1.60;1.50;;;;;;;34.57;25.55;99211.66;5073484;28;20192;-65
2022/08/02 07:04:21;;;;;;;6.13;1.75;;;;;;;34.59;25.39;99209.31;5073143;28;20199;-65
2022/08/02 07:06:48;;;;;;;3.33;1.70;;;;;;;34.65;25.61;99213.38;5073315;28;20191;-63
2022/08/02 07:09:15;;;;;;;12.40;2.40;;;;;;;34.16;25.81;99210.28;5068464;28;20254;-63
2022/08/02 07:11:42;;;;;;;8.55;1.92;;;;;;;34.52;25.62;99215.47;5068310;28;20737;-63
2022/08/02 07:14:10;;;;;;;2.28;1.50;;;;;;;33.95;26.28;99207.00;5067286;28;20199;-65
2022/08/02 07:16:37;;;;;;;2.60;1.50;;;;;;;34.20;25.89;99196.56;5064065;28;20204;-63
2022/08/02 07:19:04;;;;;;;27.58;3.58;;;;;;;34.33;26.13;99218.19;5070669;28;20555;-67
2022/08/02 07:21:31;;;;;;;5.15;1.50;;;;;;;34.83;26.05;99220.13;5072261;28;20195;-67
2022/08/02 07:23:57;;;;;;;1.40;1.30;;;;;;;35.46;25.86;99221.41;5067805;28;20245;-65
2022/08/02 07:26:24;;;;;;;3.33;1.50;;;;;;;35.66;25.45;99221.03;5070657;28;20253;-63
2022/08/02 07:28:51;;;;;;;3.35;1.40;;;;;;;35.73;24.60;99220.34;5071878;28;20546;-64
2022/08/02 07:31:19;;;;;;;2.75;1.25;;;;;;;36.11;24.78;99217.47;5071984;28;20223;-63
2022/08/02 07:33:45;;;;;;;2.05;1.45;;;;;;;35.60;24.54;99218.94;5063533;28;20242;-66
2022/08/02 07:36:12;;;;;;;3.10;1.42;;;;;;;35.63;25.00;99218.19;5057432;28;20270;-66
2022/08/02 07:38:39;;;;;;;28.00;3.15;;;;;;;34.97;25.35;99214.91;5065827;28;20192;-66
2022/08/02 07:41:06;;;;;;;2.28;1.27;;;;;;;35.27;24.78;99210.38;5070378;28;20253;-65
2022/08/02 07:43:32;;;;;;;3.97;1.20;;;;;;;35.88;23.70;99211.16;5057642;28;20623;-66
2022/08/02 07:45:59;;;;;;;1.13;1.00;;;;;;;36.03;23.65;99218.50;5050778;28;20262;-65
2022/08/02 07:48:27;;;;;;;1.20;1.10;;;;;;;36.21;23.55;99214.84;5051701;28;20726;-63
2022/08/02 07:50:54;;;;;;;1.17;1.17;;;;;;;35.75;24.13;99212.50;5063222;28;20703;-64
2022/08/02 07:53:21;;;;;;;3.78;1.40;;;;;;;35.95;23.89;99214.03;5072183;28;20203;-65
2022/08/02 07:55:48;;;;;;;1.30;1.20;;;;;;;35.74;24.36;99217.22;5072012;28;20222;-65
2022/08/02 07:58:15;;;;;;;1.67;1.58;;;;;;;35.17;25.71;99213.72;5072282;28;20227;-64
2022/08/02 08:00:42;;;;;;;1.98;1.30;;;;;;;35.60;25.87;99216.16;5071914;28;20589;-65
2022/08/02 08:03:09;;;;;;;4.28;1.35;;;;;;;35.72;24.76;99213.22;5072250;28;20261;-64
2022/08/02 08:05:37;;;;;;;1.13;1.13;;;;;;;35.14;25.30;99211.69;5072011;28;20204;-64
2022/08/02 08:08:04;;;;;;;1.27;1.02;;;;;;;35.46;25.05;99218.66;5072208;28;20195;-64
2022/08/02 08:10:32;;;;;;;2.40;1.15;;;;;;;35.33;24.66;99214.47;5072245;28;20326;-64
2022/08/02 08:12:58;;;;;;;3.60;0.90;;;;;;;35.41;25.58;99221.72;5072082;28;20200;-64
2022/08/02 08:15:25;;;;;;;2.45;1.38;;;;;;;35.71;24.36;99217.13;5071820;28;20654;-66
2022/08/02 08:17:52;;;;;;;2.28;1.35;;;;;;;35.78;25.76;99215.34;5053258;28;20188;-65
2022/08/02 08:20:19;;;;;;;1.40;1.30;;;;;;;35.05;26.16;99208.34;5051712;28;20744;-65
2022/08/02 08:22:47;;;;;;;1.13;1.10;;;;;;;35.17;25.92;99213.72;5051646;28;20262;-64
2022/08/02 08:25:13;;;;;;;1.20;1.10;;;;;;;35.36;25.68;99219.28;5062175;28;20241;-65
2022/08/02 08:27:48;;;;;;;2.33;1.13;;;;;;;35.44;24.92;99212.72;5071747;28;20188;-66
2022/08/02 08:30:15;;;;;;;5.70;1.52;;;;;;;35.58;25.32;99224.00;5071526;28;20219;-65
2022/08/02 08:32:42;;;;;;;0.82;0.82;;;;;;;35.35;26.00;99221.22;5070442;28;20253;-65
2022/08/02 08:35:09;;;;;;;1.48;0.80;;;;;;;35.24;24.95;99224.94;5071006;28;20610;-64
2022/08/02 08:37:35;;;;;;;3.17;1.08;;;;;;;35.04;25.39;99224.13;5071519;28;20753;-65
2022/08/02 08:40:05;;;;;;;0.73;0.73;;;;;;;35.04;24.07;99220.56;5071912;28;20257;-65
2022/08/02 08:42:33;;;;;;;2.83;0.85;;;;;;;34.87;25.76;99221.00;5067283;28;20735;-63
2022/08/02 08:45:00;;;;;;;1.58;0.68;;;;;;;35.01;25.06;99226.81;5051457;28;20250;-63
2022/08/02 08:47:33;;;;;;;0.70;0.70;;;;;;;35.39;25.19;99215.78;5051805;28;20192;-64
2022/08/02 08:50:03;;;;;;;2.05;0.70;;;;;;;35.70;25.04;99221.06;5052345;28;20189;-64
2022/08/02 08:52:32;;;;;;;1.27;0.95;;;;;;;35.67;24.55;99222.63;5052374;28;20219;-64
2022/08/02 08:54:59;;;;;;;2.75;0.88;;;;;;;35.28;25.45;99220.31;5073622;28;20199;-63
2022/08/02 08:57:30;;;;;;;5.75;1.77;;;;;;;35.17;24.80;99211.78;5075753;28;20587;-65
2022/08/02 08:59:57;;;;;;;2.40;0.73;;;;;;;35.53;24.53;99216.84;5076010;28;20192;-64
2022/08/02 09:02:24;;;;;;;1.60;1.10;;;;;;;35.88;24.17;99211.94;5075974;28;20200;-63
2022/08/02 09:04:51;;;;;;;1.10;1.10;;;;;;;36.13;23.03;99213.16;5074239;28;20249;-65
2022/08/02 09:07:17;;;;;;;1.02;0.93;;;;;;;36.24;23.86;99218.88;5071405;28;20262;-64
2022/08/02 09:09:44;;;;;;;0.82;0.80;;;;;;;35.89;24.30;99207.22;5055350;28;20201;-63
2022/08/02 09:12:14;;;;;;;0.77;0.75;;;;;;;35.90;24.30;99204.09;5054770;28;20228;-64
2022/08/02 09:14:42;;;;;;;0.90;0.80;;;;;;;36.08;23.88;99215.44;5055520;28;20196;-64
2022/08/02 09:17:11;;;;;;;2.60;1.08;;;;;;;36.25;23.48;99212.19;5054706;28;20197;-63
2022/08/02 09:19:39;;;;;;;15.00;1.55;;;;;;;36.37;23.71;99209.19;5055239;28;20574;-64
2022/08/02 09:22:07;;;;;;;1.20;0.68;;;;;;;35.73;24.13;99206.53;5054642;28;20547;-64
2022/08/02 09:24:43;;;;;;;8.75;1.10;;;;;;;35.32;24.14;99208.13;5058511;28;20245;-67
2022/08/02 09:27:15;;;;;;;1.10;0.80;;;;;;;35.73;24.08;99203.75;5075240;28;20274;-64
2022/08/02 09:29:46;;;;;;;1.65;0.80;;;;;;;35.62;23.54;99200.00;5074146;28;20241;-66
2022/08/02 09:32:14;;;;;;;0.80;0.80;;;;;;;35.53;23.76;99202.22;5072938;28;20208;-64
2022/08/02 09:34:49;;;;;;;0.68;0.68;;;;;;;34.60;24.82;99188.84;5072746;28;20278;-63
2022/08/02 09:37:24;;;;;;;0.98;0.80;;;;;;;34.91;24.69;99188.75;5053295;28;20253;-63
2022/08/02 09:39:50;;;;;;;2.40;1.13;;;;;;;35.14;25.61;99184.06;5054977;28;20275;-64
2022/08/02 09:42:17;;;;;;;2.92;1.00;;;;;;;34.80;25.66;99182.19;5071871;28;20200;-63
2022/08/02 09:44:54;;;;;;;1.48;0.88;;;;;;;34.69;25.92;99179.19;5070914;28;20253;-63
2022/08/02 09:47:21;;;;;;;2.05;0.70;;;;;;;34.94;25.46;99182.50;5074471;28;20249;-63
2022/08/02 09:49:48;;;;;;;1.95;0.85;;;;;;;35.03;25.06;99188.59;5075382;28;20273;-63
2022/08/02 09:52:15;;;;;;;2.22;0.82;;;;;;;35.40;24.88;99178.69;5074631;28;20219;-62
2022/08/02 09:54:42;;;;;;;1.30;0.82;;;;;;;35.57;24.75;99183.72;5074189;28;20253;-64
2022/08/02 09:57:10;;;;;;;2.40;0.90;;;;;;;35.51;24.95;99180.47;5074448;28;20253;-64
2022/08/02 09:59:37;;;;;;;0.60;0.60;;;;;;;35.75;24.53;99185.66;5074449;28;20200;-64
2022/08/02 10:02:11;;;;;;;1.35;0.70;;;;;;;35.50;23.98;99178.88;5074272;28;20212;-63
2022/08/02 10:04:38;;;;;;;2.03;1.13;;;;;;;35.50;24.61;99178.06;5074624;28;20230;-62
2022/08/02 10:07:05;;;;;;;0.88;0.88;;;;;;;35.10;24.99;99183.19;5072897;28;20192;-63
2022/08/02 10:09:33;;;;;;;2.03;1.50;;;;;;;35.16;25.19;99184.50;5074746;28;20192;-65
2022/08/02 10:12:00;;;;;;;1.73;0.93;;;;;;;34.07;26.08;99175.75;5074323;28;20223;-65
2022/08/02 10:14:27;;;;;;;1.17;0.90;;;;;;;34.19;26.48;99175.66;5074156;28;20749;-64
2022/08/02 10:16:57;;;;;;;2.00;1.20;;;;;;;33.79;26.65;99183.31;5074229;28;20279;-64
2022/08/02 10:19:25;;;;;;;1.00;1.00;;;;;;;33.77;26.59;99169.91;5074593;28;20199;-64
2022/08/02 10:21:57;;;;;;;16.85;2.15;;;;;;;33.97;26.34;99170.81;5073832;28;20667;-65
2022/08/02 10:24:28;;;;;;;3.53;1.13;;;;;;;33.72;26.89;99169.38;5073857;28;20279;-65
2022/08/02 10:26:55;;;;;;;4.55;1.23;;;;;;;33.92;28.18;99158.09;5074582;28;20192;-65
2022/08/02 10:29:29;;;;;;;1.95;1.10;;;;;;;33.76;27.23;99170.25;5074064;28;20192;-65
2022/08/02 10:32:01;;;;;;;1.00;1.00;;;;;;;33.19;27.30;99163.25;5073508;28;20215;-64
2022/08/02 10:34:34;;;;;;;1.00;1.00;;;;;;;33.57;26.69;99156.38;5073792;28;20188;-64
2022/08/02 10:37:03;;;;;;;4.72;1.17;;;;;;;33.60;26.98;99155.69;5073545;28;20721;-65
2022/08/02 10:39:39;;;;;;;1.83;1.00;;;;;;;33.10;27.26;99159.84;5074106;28;20196;-63
2022/08/02 10:42:06;;;;;;;1.17;1.07;;;;;;;33.29;26.89;99162.75;5063962;28;20651;-65
2022/08/02 10:44:34;;;;;;;1.77;1.10;;;;;;;33.38;26.76;99153.53;5053438;28;20628;-64
2022/08/02 10:47:21;;;;;;;1.03;1.03;;;;;;;33.22;27.96;99158.97;5063525;28;20273;-65
2022/08/02 10:49:51;;;;;;;0.97;0.97;;;;;;;32.80;27.79;99150.38;5073446;28;20195;-65
2022/08/02 10:52:18;;;;;;;2.50;1.03;;;;;;;32.34;28.28;99164.66;5073450;28;20281;-64
2022/08/02 10:54:50;;;;;;;1.87;1.07;;;;;;;32.68;28.38;99158.63;5073348;28;20693;-63
2022/08/02 10:57:20;;;;;;;1.20;1.20;;;;;;;33.09;27.88;99163.78;5073540;28;20631;-64
2022/08/02 10:59:47;;;;;;;1.20;1.10;;;;;;;33.28;27.31;99161.13;5073270;28;20659;-64
2022/08/02 11:02:34;;;;;;;4.10;1.33;;;;;;;33.37;27.24;99162.94;5073007;28;20207;-65
2022/08/02 11:05:08;;;;;;;2.03;1.40;;;;;;;32.55;28.98;99151.53;5073176;28;20652;-65
2022/08/02 11:07:40;;;;;;;3.97;1.30;;;;;;;32.90;28.23;99155.34;5073303;28;20206;-64
2022/08/02 11:10:33;;;;;;;3.17;1.77;;;;;;;32.68;28.43;99150.38;5073144;28;20257;-64
2022/08/02 11:13:02;;;;;;;1.00;1.00;;;;;;;32.98;27.80;99151.66;5072795;28;20188;-65
2022/08/02 11:15:29;;;;;;;1.30;1.10;;;;;;;32.94;28.07;99141.69;5073154;28;20192;-63
2022/08/02 11:17:58;;;;;;;1.90;1.00;;;;;;;33.17;28.52;99148.22;5072298;28;20249;-64
2022/08/02 11:20:27;;;;;;;1.43;1.33;;;;;;;33.37;28.24;99129.88;5072831;28;20671;-64
2022/08/02 11:22:55;;;;;;;3.67;1.10;;;;;;;33.56;27.50;99127.25;5072593;28;20257;-65
2022/08/02 11:25:34;;;;;;;1.97;1.03;;;;;;;33.57;27.65;99117.81;5072463;28;20234;-65
2022/08/02 11:28:10;;;;;;;1.10;1.00;;;;;;;33.79;27.28;99125.44;5072584;28;20603;-66
2022/08/02 11:30:37;;;;;;;0.93;0.80;;;;;;;33.61;27.76;99125.03;5072633;28;20301;-65
2022/08/02 11:33:05;;;;;;;1.67;1.30;;;;;;;33.93;28.42;99120.31;5072325;28;20191;-65
2022/08/02 11:35:35;;;;;;;1.20;1.00;;;;;;;34.04;26.85;99122.13;5072200;28;20203;-65
2022/08/02 11:38:19;;;;;;;0.90;0.90;;;;;;;34.09;26.57;99129.34;5072208;28;20567;-66
2022/08/02 11:40:46;;;;;;;1.58;0.90;;;;;;;33.80;27.05;99127.06;5072383;28;20218;-67
2022/08/02 11:43:17;;;;;;;0.87;0.87;;;;;;;33.84;26.85;99130.72;5052143;28;20193;-67
2022/08/02 11:45:44;;;;;;;0.85;0.85;;;;;;;33.83;26.91;99127.16;5052342;28;20726;-69
2022/08/02 11:48:11;;;;;;;1.67;0.90;;;;;;;33.71;27.16;99118.19;5052554;28;20197;-68
2022/08/02 11:50:39;;;;;;;1.37;1.00;;;;;;;33.22;27.44;99124.00;5053702;28;20216;-66